createdAt,value
2018-06-14T00:00:26.703Z,100619.54
2018-06-14T00:02:55.708Z,100618.27
2018-06-14T00:05:24.764Z,100618.52
2018-06-14T00:08:00.766Z,100619.98
2018-06-14T00:10:30.671Z,100619.47
2018-06-14T00:12:59.388Z,100615.77
2018-06-14T00:15:28.064Z,100616.91
2018-06-14T00:17:56.801Z,100617.97
2018-06-14T00:20:25.452Z,100616.33
2018-06-14T00:22:54.176Z,100615.48
2018-06-14T00:25:22.928Z,100617.84
2018-06-14T00:27:51.718Z,100619.72
2018-06-14T00:30:20.800Z,100620.32
2018-06-14T00:32:49.801Z,100622.66
2018-06-14T00:35:18.905Z,100619.13
2018-06-14T00:37:47.781Z,100623.31
2018-06-14T00:40:16.978Z,100625.62
2018-06-14T00:42:45.572Z,100624.28
2018-06-14T00:47:42.147Z,100632.47
2018-06-14T00:50:10.887Z,100630.28
2018-06-14T00:52:39.622Z,100634.28
2018-06-14T00:55:09.773Z,100633.80
2018-06-14T00:57:38.466Z,100634.28
2018-06-14T01:00:07.181Z,100630.40
2018-06-14T01:02:36.189Z,100622.39
2018-06-14T01:05:04.993Z,100621.06
2018-06-14T01:07:33.769Z,100615.72
2018-06-14T01:10:02.642Z,100617.91
2018-06-14T01:12:31.513Z,100618.88
2018-06-14T01:15:00.287Z,100622.91
2018-06-14T01:17:29.205Z,100623.42
2018-06-14T01:19:58.079Z,100626.80
2018-06-14T01:22:27.426Z,100630.95
2018-06-14T01:24:56.278Z,100629.06
2018-06-14T01:27:25.196Z,100632.81
2018-06-14T01:29:54.574Z,100630.72
2018-06-14T01:32:23.392Z,100637.08
2018-06-14T01:34:52.383Z,100641.58
2018-06-14T01:37:21.326Z,100643.03
2018-06-14T01:39:50.209Z,100641.81
2018-06-14T01:42:19.104Z,100645.50
2018-06-14T01:44:48.151Z,100645.98
2018-06-14T01:47:25.763Z,100646.84
2018-06-14T01:49:56.867Z,100644.42
2018-06-14T01:52:28.257Z,100642.88
2018-06-14T01:54:58.117Z,100639.26
2018-06-14T01:57:27.998Z,100636.05
2018-06-14T02:00:00.554Z,100629.80
2018-06-14T02:02:34.258Z,100635.58
2018-06-14T02:05:11.715Z,100630.63
2018-06-14T02:07:42.358Z,100629.15
2018-06-14T02:10:15.033Z,100635.10
2018-06-14T02:12:51.865Z,100641.84
2018-06-14T02:15:22.862Z,100641.44
2018-06-14T02:17:57.443Z,100649.38
2018-06-14T02:20:29.063Z,100644.73
2018-06-14T02:23:14.728Z,100648.03
2018-06-14T02:25:48.583Z,100647.01
2018-06-14T02:28:20.937Z,100649.45
2018-06-14T02:30:55.003Z,100644.65
2018-06-14T02:33:24.982Z,100647.73
2018-06-14T02:36:11.900Z,100650.63
2018-06-14T02:38:40.527Z,100656.66
2018-06-14T02:41:09.283Z,100656.98
2018-06-14T02:43:38.085Z,100662.61
2018-06-14T02:46:07.851Z,100658.44
2018-06-14T02:48:36.618Z,100665.46
2018-06-14T02:51:05.346Z,100667.45
2018-06-14T02:53:34.197Z,100671.73
2018-06-14T02:56:03.180Z,100669.98
2018-06-14T02:58:31.925Z,100678.88
2018-06-14T03:01:00.794Z,100680.87
2018-06-14T03:03:29.499Z,100677.10
2018-06-14T03:05:58.293Z,100680.56
2018-06-14T03:08:27.320Z,100688.77
2018-06-14T03:10:56.179Z,100692.09
2018-06-14T03:13:25.032Z,100691.32
2018-06-14T03:15:53.907Z,100692.45
2018-06-14T03:18:22.592Z,100687.72
2018-06-14T03:20:52.322Z,100693.23
2018-06-14T03:23:21.177Z,100690.81
2018-06-14T03:25:49.946Z,100682.02
2018-06-14T03:28:19.068Z,100685.28
2018-06-14T03:30:50.789Z,100694.36
2018-06-14T03:33:19.540Z,100690.33
2018-06-14T03:35:49.835Z,100697.20
2018-06-14T03:38:18.978Z,100701.63
2018-06-14T03:40:51.048Z,100691.45
2018-06-14T03:43:20.252Z,100697.27
2018-06-14T03:45:51.294Z,100700.34
2018-06-14T03:48:20.425Z,100703.01
2018-06-14T03:50:50.313Z,100697.37
2018-06-14T03:53:20.202Z,100702.25
2018-06-14T03:55:49.258Z,100704.34
2018-06-14T03:58:18.638Z,100699.91
2018-06-14T04:00:50.252Z,100703.56
2018-06-14T04:03:25.745Z,100708.55
2018-06-14T04:05:56.168Z,100710.35
2018-06-14T04:08:25.725Z,100700.61
2018-06-14T04:11:07.809Z,100706.16
2018-06-14T04:13:38.187Z,100705.80
2018-06-14T04:16:08.364Z,100708.84
2018-06-14T04:18:38.858Z,100722.02
2018-06-14T04:21:14.178Z,100720.74
2018-06-14T04:26:34.204Z,100718.14
2018-06-14T04:29:04.229Z,100717.88
2018-06-14T04:31:35.528Z,100716.72
2018-06-14T04:34:04.572Z,100721.16
2018-06-14T04:36:33.723Z,100720.20
2018-06-14T04:39:02.994Z,100721.17
2018-06-14T04:41:32.072Z,100723.53
2018-06-14T04:49:38.063Z,100724.02
2018-06-14T04:52:07.061Z,100727.52
2018-06-14T04:54:36.070Z,100728.91
2018-06-14T04:57:04.864Z,100722.23
2018-06-14T04:59:33.629Z,100723.00
2018-06-14T05:02:02.469Z,100730.81
2018-06-14T05:04:31.617Z,100730.23
2018-06-14T05:07:00.361Z,100733.48
2018-06-14T05:09:29.559Z,100740.52
2018-06-14T05:11:58.316Z,100744.13
2018-06-14T05:14:27.366Z,100740.84
2018-06-14T05:16:56.119Z,100741.45
2018-06-14T05:19:24.932Z,100732.80
2018-06-14T05:21:53.780Z,100736.22
2018-06-14T05:24:22.683Z,100736.17
2018-06-14T05:26:51.616Z,100737.63
2018-06-14T05:29:20.444Z,100732.56
2018-06-14T05:31:49.781Z,100732.77
2018-06-14T05:34:20.629Z,100734.95
2018-06-14T05:36:54.786Z,100734.28
2018-06-14T05:39:23.536Z,100737.42
2018-06-14T05:41:52.272Z,100739.48
2018-06-14T05:44:21.635Z,100739.19
2018-06-14T05:46:50.728Z,100737.45
2018-06-14T05:49:19.903Z,100741.05
2018-06-14T05:51:48.721Z,100734.05
2018-06-14T05:54:17.520Z,100734.47
2018-06-14T05:56:49.603Z,100733.11
2018-06-14T05:59:18.467Z,100734.85
2018-06-14T06:01:47.359Z,100738.80
2018-06-14T06:04:16.676Z,100738.08
2018-06-14T06:06:46.751Z,100734.05
2018-06-14T06:09:16.098Z,100729.17
2018-06-14T06:11:44.837Z,100724.91
2018-06-14T06:14:14.213Z,100721.45
2018-06-14T06:16:43.448Z,100722.61
2018-06-14T06:19:12.126Z,100716.03
2018-06-14T06:21:41.623Z,100715.59
2018-06-14T06:24:10.415Z,100714.17
2018-06-14T06:26:39.316Z,100714.10
2018-06-14T06:29:08.113Z,100709.33
2018-06-14T06:31:36.821Z,100714.13
2018-06-14T06:34:05.860Z,100719.61
2018-06-14T06:36:35.066Z,100718.17
2018-06-14T06:39:04.029Z,100722.95
2018-06-14T06:41:32.891Z,100717.82
2018-06-14T06:44:01.675Z,100725.11
2018-06-14T06:46:30.382Z,100725.77
2018-06-14T06:48:59.362Z,100723.80
2018-06-14T06:51:29.457Z,100727.44
2018-06-14T06:53:59.473Z,100718.97
2018-06-14T06:56:36.974Z,100716.41
2018-06-14T06:59:13.568Z,100717.24
2018-06-14T07:01:42.245Z,100712.95
2018-06-14T07:04:11.509Z,100709.98
2018-06-14T07:06:42.684Z,100718.93
2018-06-14T07:09:12.097Z,100715.53
2018-06-14T07:11:40.857Z,100709.49
2018-06-14T07:14:10.412Z,100707.83
2018-06-14T07:16:43.201Z,100708.69
2018-06-14T07:19:12.048Z,100708.69
2018-06-14T07:21:41.151Z,100716.46
2018-06-14T07:24:10.582Z,100711.92
2018-06-14T07:26:39.276Z,100707.02
2018-06-14T07:29:09.411Z,100699.48
2018-06-14T07:31:38.229Z,100700.41
2018-06-14T07:39:50.961Z,100698.28
2018-06-14T07:42:19.851Z,100692.16
2018-06-14T07:44:49.481Z,100696.39
2018-06-14T07:47:22.302Z,100694.45
2018-06-14T07:49:51.101Z,100688.99
2018-06-14T07:52:23.435Z,100695.50
2018-06-14T07:54:52.767Z,100690.98
2018-06-14T07:57:23.429Z,100689.52
2018-06-14T07:59:55.328Z,100681.39
2018-06-14T08:02:24.379Z,100681.22
2018-06-14T08:04:55.624Z,100692.55
2018-06-14T08:07:25.289Z,100677.02
2018-06-14T08:09:57.180Z,100690.95
2018-06-14T08:12:40.545Z,100686.90
2018-06-14T08:15:12.465Z,100680.87
2018-06-14T08:17:43.333Z,100677.87
2018-06-14T08:23:11.451Z,100674.44
2018-06-14T08:25:41.011Z,100672.69
2018-06-14T08:28:10.893Z,100669.61
2018-06-14T08:30:50.156Z,100677.80
2018-06-14T08:33:22.629Z,100681.97
2018-06-14T08:35:57.606Z,100666.74
2018-06-14T08:38:40.590Z,100666.95
2018-06-14T08:41:09.839Z,100667.62
2018-06-14T08:43:38.510Z,100661.80
2018-06-14T08:46:08.106Z,100659.38
2018-06-14T08:48:37.653Z,100663.03
2018-06-14T08:51:06.700Z,100664.97
2018-06-14T08:53:35.390Z,100663.08
2018-06-14T08:56:04.092Z,100669.44
2018-06-14T08:58:33.513Z,100671.00
2018-06-14T09:01:02.237Z,100666.70
2018-06-14T09:03:36.187Z,100669.56
2018-06-14T09:06:02.139Z,100666.83
2018-06-14T09:08:33.302Z,100660.15
2018-06-14T09:11:02.122Z,100658.16
2018-06-14T09:13:31.035Z,100651.36
2018-06-14T09:15:59.780Z,100655.61
2018-06-14T09:18:28.535Z,100651.82
2018-06-14T09:20:57.229Z,100652.12
2018-06-14T09:23:26.277Z,100655.13
2018-06-14T09:25:54.931Z,100651.81
2018-06-14T09:28:24.104Z,100654.29
2018-06-14T09:30:53.364Z,100646.11
2018-06-14T09:33:22.099Z,100647.45
2018-06-14T09:35:50.858Z,100639.00
2018-06-14T09:38:19.713Z,100639.77
2018-06-14T09:40:48.453Z,100637.36
2018-06-14T09:43:17.338Z,100635.98
2018-06-14T09:45:46.120Z,100630.96
2018-06-14T09:48:15.171Z,100619.13
2018-06-14T09:50:44.044Z,100624.24
2018-06-14T09:53:14.123Z,100621.62
2018-06-14T09:55:42.957Z,100626.03
2018-06-14T09:58:13.259Z,100620.19
2018-06-14T10:00:42.036Z,100616.75
2018-06-14T10:03:11.107Z,100611.11
2018-06-14T10:05:39.869Z,100611.42
2018-06-14T10:08:08.617Z,100611.38
2018-06-14T10:10:37.692Z,100613.30
2018-06-14T10:13:07.074Z,100609.20
2018-06-14T10:15:36.006Z,100609.09
2018-06-14T10:18:05.296Z,100609.61
2018-06-14T10:20:33.901Z,100605.45
2018-06-14T10:23:02.613Z,100603.91
2018-06-14T10:25:31.381Z,100603.27
2018-06-14T10:28:00.337Z,100594.98
2018-06-14T10:30:29.232Z,100591.81
2018-06-14T10:32:57.925Z,100594.70
2018-06-14T10:35:26.574Z,100588.22
2018-06-14T10:37:55.679Z,100593.44
2018-06-14T10:40:24.343Z,100592.03
2018-06-14T10:42:53.043Z,100588.75
2018-06-14T10:45:21.725Z,100578.70
2018-06-14T10:50:39.279Z,100583.00
2018-06-14T10:53:08.043Z,100582.97
2018-06-14T10:55:37.078Z,100574.84
2018-06-14T10:58:05.754Z,100566.56
2018-06-14T11:00:34.435Z,100571.38
2018-06-14T11:03:03.116Z,100566.77
2018-06-14T11:05:31.798Z,100573.75
2018-06-14T11:08:00.465Z,100567.92
2018-06-14T11:10:29.516Z,100571.70
2018-06-14T11:12:58.656Z,100578.58
2018-06-14T11:15:27.395Z,100571.72
2018-06-14T11:17:56.026Z,100572.43
2018-06-14T11:20:25.145Z,100573.35
2018-06-14T11:22:53.676Z,100567.83
2018-06-14T11:25:22.338Z,100559.53
2018-06-14T11:27:50.970Z,100563.77
2018-06-14T11:30:20.153Z,100558.33
2018-06-14T11:32:49.006Z,100550.98
2018-06-14T11:35:17.685Z,100550.81
2018-06-14T11:37:46.332Z,100549.75
2018-06-14T11:40:15.645Z,100547.45
2018-06-14T11:42:44.277Z,100542.90
2018-06-14T11:45:12.926Z,100544.38
2018-06-14T11:47:41.581Z,100540.89
2018-06-14T11:50:10.258Z,100543.83
2018-06-14T11:52:41.006Z,100541.34
2018-06-14T11:55:09.696Z,100542.33
2018-06-14T11:57:38.325Z,100534.69
2018-06-14T12:00:07.030Z,100531.85
2018-06-14T12:02:35.680Z,100526.91
2018-06-14T12:05:04.348Z,100533.48
2018-06-14T12:07:32.973Z,100522.48
2018-06-14T12:10:01.637Z,100520.77
2018-06-14T12:12:30.254Z,100524.00
2018-06-14T12:14:58.895Z,100527.36
2018-06-14T12:17:27.552Z,100525.21
2018-06-14T12:19:56.167Z,100520.70
2018-06-14T12:22:24.840Z,100517.91
2018-06-14T12:24:53.487Z,100523.81
2018-06-14T12:27:22.178Z,100516.89
2018-06-14T12:29:50.819Z,100519.36
2018-06-14T12:32:19.474Z,100512.86
2018-06-14T12:34:48.105Z,100513.38
2018-06-14T12:37:16.805Z,100511.58
2018-06-14T12:39:45.427Z,100502.50
2018-06-14T12:42:14.111Z,100498.05
2018-06-14T12:44:43.986Z,100499.64
2018-06-14T12:47:12.668Z,100494.39
2018-06-14T12:49:41.538Z,100504.48
2018-06-14T12:52:10.194Z,100492.05
2018-06-14T12:54:38.808Z,100489.27
2018-06-14T12:57:08.359Z,100487.66
2018-06-14T12:59:36.973Z,100477.98
2018-06-14T13:02:13.298Z,100480.81
2018-06-14T13:04:41.939Z,100479.33
2018-06-14T13:07:10.602Z,100485.10
2018-06-14T13:09:39.587Z,100476.61
2018-06-14T13:12:08.245Z,100477.46
2018-06-14T13:14:37.534Z,100474.84
2018-06-14T13:17:06.382Z,100467.13
2018-06-14T13:19:35.030Z,100465.24
2018-06-14T13:22:03.678Z,100459.02
2018-06-14T13:24:32.323Z,100458.03
2018-06-14T13:27:01.011Z,100458.45
2018-06-14T13:29:29.651Z,100458.89
2018-06-14T13:34:45.866Z,100452.48
2018-06-14T13:37:15.016Z,100446.38
2018-06-14T13:39:43.646Z,100438.14
2018-06-14T13:42:12.315Z,100436.66
2018-06-14T13:44:40.952Z,100439.36
2018-06-14T13:47:09.647Z,100435.38
2018-06-14T13:49:38.352Z,100423.77
2018-06-14T13:52:07.047Z,100423.95
2018-06-14T13:54:36.014Z,100430.47
2018-06-14T13:57:04.809Z,100431.17
2018-06-14T13:59:41.141Z,100426.31
2018-06-14T14:02:10.288Z,100421.38
2018-06-14T14:04:39.617Z,100416.13
2018-06-14T14:07:08.267Z,100416.14
2018-06-14T14:09:37.181Z,100412.73
2018-06-14T14:12:05.812Z,100405.70
2018-06-14T14:14:34.515Z,100402.84
2018-06-14T14:17:03.135Z,100403.83
2018-06-14T14:19:31.891Z,100402.86
2018-06-14T14:22:00.552Z,100398.00
2018-06-14T14:24:29.180Z,100392.41
2018-06-14T14:26:57.942Z,100389.17
2018-06-14T14:29:35.192Z,100393.70
2018-06-14T14:32:03.802Z,100391.21
2018-06-14T14:34:32.473Z,100388.41
2018-06-14T14:37:01.133Z,100378.91
2018-06-14T14:39:30.180Z,100375.56
2018-06-14T14:41:58.864Z,100374.00
2018-06-14T14:44:27.893Z,100370.80
2018-06-14T14:46:57.051Z,100368.78
2018-06-14T14:49:29.567Z,100367.33
2018-06-14T14:52:01.817Z,100367.40
2018-06-14T14:54:31.620Z,100366.80
2018-06-14T14:57:00.586Z,100359.71
2018-06-14T14:59:31.052Z,100359.18
2018-06-14T15:01:59.951Z,100352.33
2018-06-14T15:04:30.031Z,100354.98
2018-06-14T15:06:59.151Z,100355.87
2018-06-14T15:09:28.221Z,100357.38
2018-06-14T15:11:57.210Z,100353.36
2018-06-14T15:14:25.754Z,100347.78
2018-06-14T15:16:54.669Z,100351.69
2018-06-14T15:19:23.510Z,100353.79
2018-06-14T15:21:54.463Z,100341.71
2018-06-14T15:24:23.069Z,100343.30
2018-06-14T15:26:51.704Z,100343.67
2018-06-14T15:29:20.350Z,100341.48
2018-06-14T15:31:48.988Z,100336.35
2018-06-14T15:34:17.679Z,100340.34
2018-06-14T15:36:46.328Z,100338.13
2018-06-14T15:39:14.967Z,100335.17
2018-06-14T15:41:43.634Z,100341.14
2018-06-14T15:44:12.254Z,100329.12
2018-06-14T15:46:40.947Z,100338.41
2018-06-14T15:49:09.638Z,100330.11
2018-06-14T15:51:38.394Z,100328.75
2018-06-14T15:54:07.598Z,100330.73
2018-06-14T16:02:11.456Z,100328.08
2018-06-14T16:04:40.120Z,100326.19
2018-06-14T16:09:59.466Z,100316.25
2018-06-14T16:12:28.221Z,100310.92
2018-06-14T16:14:56.992Z,100308.30
2018-06-14T16:17:25.733Z,100306.34
2018-06-14T16:19:54.552Z,100311.35
2018-06-14T16:22:23.303Z,100313.30
2018-06-14T16:24:51.974Z,100312.03
2018-06-14T16:27:20.696Z,100315.03
2018-06-14T16:29:49.478Z,100308.31
2018-06-14T16:32:18.215Z,100311.08
2018-06-14T16:34:46.916Z,100314.16
2018-06-14T16:37:15.959Z,100307.16
2018-06-14T16:39:44.606Z,100310.48
2018-06-14T16:42:13.506Z,100309.72
2018-06-14T16:44:42.188Z,100312.92
2018-06-14T16:47:10.929Z,100313.62
2018-06-14T16:49:39.603Z,100312.31
2018-06-14T16:52:08.370Z,100308.47
2018-06-14T16:54:37.063Z,100314.21
2018-06-14T16:57:05.848Z,100311.66
2018-06-14T16:59:34.557Z,100315.18
2018-06-14T17:02:04.936Z,100306.48
2018-06-14T17:04:33.660Z,100309.27
2018-06-14T17:07:02.513Z,100304.27
2018-06-14T17:09:31.552Z,100305.77
2018-06-14T17:12:03.280Z,100305.55
2018-06-14T17:14:32.050Z,100306.95
2018-06-14T17:17:00.800Z,100306.86
2018-06-14T17:19:29.540Z,100311.44
2018-06-14T17:21:58.360Z,100309.20
2018-06-14T17:24:27.061Z,100305.89
2018-06-14T17:26:55.784Z,100314.51
2018-06-14T17:29:27.604Z,100313.68
2018-06-14T17:31:56.451Z,100313.00
2018-06-14T17:34:25.279Z,100319.02
2018-06-14T17:36:54.054Z,100323.23
2018-06-14T17:39:22.796Z,100327.63
2018-06-14T17:41:55.271Z,100331.46
2018-06-14T17:50:03.535Z,100333.41
2018-06-14T17:52:32.260Z,100339.39
2018-06-14T17:55:00.947Z,100345.42
2018-06-14T17:57:29.704Z,100344.28
2018-06-14T17:59:58.530Z,100350.17
2018-06-14T18:02:27.200Z,100345.56
2018-06-14T18:04:56.055Z,100346.44
2018-06-14T18:07:26.376Z,100353.11
2018-06-14T18:09:56.559Z,100354.48
2018-06-14T18:12:25.411Z,100356.05
2018-06-14T18:14:54.389Z,100362.09
2018-06-14T18:17:23.214Z,100365.31
2018-06-14T18:19:52.521Z,100366.23
2018-06-14T18:22:21.162Z,100366.64
2018-06-14T18:24:49.916Z,100369.49
2018-06-14T18:27:18.984Z,100372.91
2018-06-14T18:29:47.776Z,100372.16
2018-06-14T18:32:16.545Z,100376.66
2018-06-14T18:34:45.404Z,100375.85
2018-06-14T18:37:14.073Z,100376.48
2018-06-14T18:39:42.892Z,100381.50
2018-06-14T18:42:11.587Z,100382.33
2018-06-14T18:44:48.611Z,100387.56
2018-06-14T18:47:19.627Z,100386.41
2018-06-14T18:49:49.465Z,100384.52
2018-06-14T18:52:19.804Z,100394.72
2018-06-14T18:54:49.157Z,100393.66
2018-06-14T18:57:18.609Z,100397.63
2018-06-14T18:59:47.721Z,100401.78
2018-06-14T19:02:18.259Z,100396.73
2018-06-14T19:04:47.550Z,100401.62
2018-06-14T19:07:27.105Z,100407.92
2018-06-14T19:09:56.100Z,100407.61
2018-06-14T19:12:28.701Z,100413.65
2018-06-14T19:14:59.986Z,100415.36
2018-06-14T19:17:31.121Z,100428.95
2018-06-14T19:20:00.132Z,100436.84
2018-06-14T19:22:29.149Z,100433.81
2018-06-14T19:24:58.522Z,100433.13
2018-06-14T19:27:27.324Z,100433.48
2018-06-14T19:29:57.373Z,100437.45
2018-06-14T19:32:28.985Z,100441.47
2018-06-14T19:34:57.838Z,100441.50
2018-06-14T19:40:18.572Z,100450.81
2018-06-14T19:42:47.377Z,100452.64
2018-06-14T19:45:16.209Z,100460.80
2018-06-14T19:47:45.305Z,100464.81
2018-06-14T19:50:14.848Z,100466.41
2018-06-14T19:52:43.887Z,100465.08
2018-06-14T19:55:15.184Z,100467.26
2018-06-14T19:57:44.208Z,100471.27
2018-06-14T20:00:13.613Z,100469.44
2018-06-14T20:02:42.775Z,100472.51
2018-06-14T20:05:11.607Z,100468.21
2018-06-14T20:07:40.403Z,100471.25
2018-06-14T20:10:18.093Z,100475.98
2018-06-14T20:12:48.348Z,100477.28
2018-06-14T20:15:34.029Z,100476.28
2018-06-14T20:18:03.380Z,100476.91
2018-06-14T20:20:36.394Z,100482.69
2018-06-14T20:23:11.918Z,100489.94
2018-06-14T20:25:41.385Z,100488.86
2018-06-14T20:28:10.859Z,100487.28
2018-06-14T20:30:39.932Z,100485.20
2018-06-14T20:33:10.948Z,100491.09
2018-06-14T20:35:40.595Z,100490.12
2018-06-14T20:38:09.632Z,100487.91
2018-06-14T20:40:39.219Z,100491.60
2018-06-14T20:43:08.215Z,100494.44
2018-06-14T20:45:37.474Z,100503.05
2018-06-14T20:48:07.283Z,100495.58
2018-06-14T20:50:36.528Z,100497.70
2018-06-14T20:53:06.096Z,100495.53
2018-06-14T20:55:40.139Z,100501.17
2018-06-14T20:58:11.395Z,100501.36
2018-06-14T21:00:41.379Z,100506.30
2018-06-14T21:03:10.443Z,100506.80
2018-06-14T21:05:39.340Z,100506.81
2018-06-14T21:08:08.897Z,100511.25
2018-06-14T21:24:16.293Z,100508.50
2018-06-14T21:26:49.160Z,100510.72
2018-06-14T21:29:17.970Z,100513.39
2018-06-14T21:31:47.368Z,100516.03
2018-06-14T21:34:16.557Z,100513.35
2018-06-14T21:36:45.496Z,100515.08
2018-06-14T21:39:14.587Z,100518.89
2018-06-14T21:41:44.105Z,100514.19
2018-06-14T21:44:13.088Z,100519.16
2018-06-14T21:46:42.208Z,100521.44
2018-06-14T21:49:11.120Z,100521.43
2018-06-14T21:51:39.937Z,100510.63
2018-06-14T21:54:08.863Z,100517.45
2018-06-14T21:56:37.718Z,100515.33
2018-06-14T21:59:06.642Z,100513.80
2018-06-14T22:01:35.411Z,100514.19
2018-06-14T22:04:04.409Z,100515.19
2018-06-14T22:06:33.389Z,100513.59
2018-06-14T22:09:03.339Z,100516.49
2018-06-14T22:11:32.318Z,100519.83
2018-06-14T22:14:01.515Z,100523.48
2018-06-14T22:16:30.220Z,100521.58
2018-06-14T22:18:59.064Z,100517.38
2018-06-14T22:21:27.807Z,100519.17
2018-06-14T22:23:56.545Z,100518.01
2018-06-14T22:26:25.234Z,100514.86
2018-06-14T22:28:53.925Z,100516.75
2018-06-14T22:31:22.575Z,100511.27
2018-06-14T22:34:28.577Z,100516.69
2018-06-14T22:36:57.242Z,100519.13
2018-06-14T22:39:25.973Z,100522.91
2018-06-14T22:41:57.567Z,100520.98
2018-06-14T22:44:28.432Z,100527.27
2018-06-14T22:46:57.076Z,100526.19
2018-06-14T22:49:26.160Z,100530.81
2018-06-14T22:51:55.547Z,100535.02
2018-06-14T22:54:26.512Z,100543.57
2018-06-14T22:56:59.196Z,100551.13
2018-06-14T22:59:33.444Z,100548.53
2018-06-14T23:02:02.142Z,100549.42
2018-06-14T23:04:30.940Z,100559.67
2018-06-14T23:06:59.944Z,100549.78
2018-06-14T23:09:28.699Z,100548.59
2018-06-14T23:11:57.435Z,100545.07
2018-06-14T23:14:26.324Z,100544.00
2018-06-14T23:16:55.009Z,100551.47
2018-06-14T23:19:23.824Z,100544.59
2018-06-14T23:21:52.501Z,100552.23
2018-06-14T23:24:21.177Z,100549.70
2018-06-14T23:26:49.842Z,100552.55
2018-06-14T23:29:18.585Z,100556.58
2018-06-14T23:31:47.181Z,100560.03
2018-06-14T23:34:15.857Z,100570.92
2018-06-14T23:36:44.557Z,100562.32
2018-06-14T23:39:13.302Z,100569.11
2018-06-14T23:41:42.554Z,100569.30
2018-06-14T23:44:13.324Z,100578.45
2018-06-14T23:46:43.693Z,100566.97
2018-06-14T23:49:12.656Z,100573.14
2018-06-14T23:51:41.326Z,100573.98
2018-06-14T23:54:11.214Z,100574.22
2018-06-14T23:56:39.923Z,100577.68
2018-06-14T23:59:08.596Z,100578.92
